Time;durP1;ratioP1;P1;durP2;ratioP2;P2;SDS_P1;SDS_P2;PMS_P1;PMS_P2;Temp;Humidity;BMP_temperature;BMP_pressure;BME280_temperature;BME280_humidity;BME280_pressure;Samples;Min_cycle;Max_cycle;Signal;HPM_P1;HPM_P2
2021/03/13 00:01:38;;;;;;;44.05;17.55;;;;;;;3.61;57.94;98376.34;249575;1150;114655;-78
2021/03/13 00:06:41;;;;;;;44.70;16.40;;;;;;;3.56;57.81;98372.12;251183;1148;115173;-77
2021/03/13 00:11:43;;;;;;;38.00;15.55;;;;;;;3.50;57.88;98377.67;251443;1150;114776;-77
2021/03/13 00:16:45;;;;;;;39.37;16.33;;;;;;;3.43;58.05;98383.25;251299;1148;114702;-77
2021/03/13 00:21:51;;;;;;;30.90;13.30;;;;;;;3.44;58.17;98374.45;251430;1150;114856;-77
2021/03/13 00:26:53;;;;;;;31.43;13.67;;;;;;;3.45;58.07;98366.48;251455;1149;114917;-78
2021/03/13 00:31:55;;;;;;;35.53;15.30;;;;;;;3.46;58.29;98359.45;248870;1149;114791;-77
2021/03/13 00:36:58;;;;;;;35.00;15.90;;;;;;;3.43;58.33;98349.94;248413;1149;115176;-77
2021/03/13 00:42:16;;;;;;;31.47;14.63;;;;;;;3.41;58.44;98346.52;251338;1149;114851;-77
2021/03/13 00:47:19;;;;;;;30.57;14.17;;;;;;;3.34;58.22;98339.81;251472;1155;115255;-77
2021/03/13 00:52:21;;;;;;;29.60;13.77;;;;;;;3.28;58.47;98337.45;250824;1148;115405;-77
2021/03/13 00:57:24;;;;;;;34.23;13.03;;;;;;;3.22;58.17;98340.34;251392;1155;114619;-77
2021/03/13 01:02:26;;;;;;;27.07;12.30;;;;;;;3.18;58.61;98338.77;251439;1148;114643;-77
2021/03/13 01:07:29;;;;;;;25.10;12.80;;;;;;;3.16;58.58;98340.60;249236;1156;115237;-77
2021/03/13 01:12:32;;;;;;;31.80;13.50;;;;;;;3.11;58.57;98340.81;250601;1149;114741;-78
2021/03/13 01:17:35;;;;;;;26.25;11.15;;;;;;;3.07;58.82;98336.61;249912;1155;114933;-79
2021/03/13 01:22:39;;;;;;;30.45;14.20;;;;;;;3.04;58.65;98332.33;251352;1155;114710;-79
2021/03/13 01:27:42;;;;;;;34.60;15.40;;;;;;;2.98;58.84;98322.08;251402;1150;115462;-78
2021/03/13 01:32:44;;;;;;;43.05;19.50;;;;;;;2.96;59.13;98323.09;249537;1148;114513;-78
2021/03/13 01:37:48;;;;;;;50.27;19.83;;;;;;;2.95;58.94;98321.36;249037;1155;114754;-77
2021/03/13 01:42:52;;;;;;;54.50;25.45;;;;;;;2.90;59.21;98316.31;251516;1148;114910;-77
2021/03/13 01:48:01;;;;;;;54.13;26.73;;;;;;;2.84;58.97;98317.41;251388;1155;114894;-77
2021/03/13 01:53:05;;;;;;;62.90;28.70;;;;;;;2.79;59.04;98324.66;249413;1149;115119;-77
2021/03/13 01:58:08;;;;;;;63.70;31.10;;;;;;;2.77;59.33;98320.38;251436;1155;115004;-77
2021/03/13 02:03:21;;;;;;;63.60;31.68;;;;;;;2.73;59.51;98317.02;249073;1148;115072;-78
2021/03/13 02:08:58;;;;;;;70.50;32.60;;;;;;;2.74;59.57;98312.62;251477;1149;114917;-77
2021/03/13 02:14:12;;;;;;;64.05;30.65;;;;;;;2.70;59.54;98300.53;248268;1156;114826;-79
2021/03/13 02:19:38;;;;;;;66.40;31.63;;;;;;;2.72;59.61;98302.19;249850;1156;114916;-78
2021/03/13 02:25:17;;;;;;;65.47;31.00;;;;;;;2.69;59.91;98288.33;251762;1149;114238;-78
2021/03/13 02:30:24;;;;;;;66.20;30.50;;;;;;;2.68;60.20;98274.31;251746;1148;114653;-79
2021/03/13 02:35:44;;;;;;;66.83;29.93;;;;;;;2.70;60.00;98274.27;251490;1149;114883;-78
2021/03/13 02:40:49;;;;;;;62.45;30.10;;;;;;;2.71;60.07;98278.59;250657;1148;114743;-79
2021/03/13 02:45:56;;;;;;;63.97;29.43;;;;;;;2.71;60.03;98282.06;251472;1149;114864;-79
2021/03/13 02:51:01;;;;;;;44.80;21.30;;;;;;;2.69;60.00;98270.79;250123;1148;114769;-77
2021/03/13 02:56:04;;;;;;;37.75;19.15;;;;;;;2.70;60.13;98266.39;251505;1149;114815;-77
2021/03/13 03:01:09;;;;;;;34.00;16.43;;;;;;;2.75;60.09;98269.66;251417;1149;114692;-78
2021/03/13 03:06:12;;;;;;;21.55;9.45;;;;;;;2.76;59.94;98263.50;251429;1148;115347;-78
2021/03/13 03:11:23;;;;;;;36.20;17.05;;;;;;;2.76;59.96;98258.25;251094;1156;114627;-78
2021/03/13 03:16:28;;;;;;;44.70;21.05;;;;;;;2.75;60.11;98257.41;249235;1149;114740;-76
2021/03/13 03:21:33;;;;;;;49.45;21.95;;;;;;;2.74;59.96;98265.33;251450;1148;114807;-77
2021/03/13 03:26:37;;;;;;;53.10;24.93;;;;;;;2.74;60.20;98260.08;250475;1149;114928;-79
2021/03/13 03:31:40;;;;;;;55.33;24.23;;;;;;;2.68;60.24;98248.05;251433;1155;115058;-76
2021/03/13 03:36:43;;;;;;;52.30;22.50;;;;;;;2.64;60.12;98237.75;251421;1149;114855;-77
2021/03/13 03:41:50;;;;;;;46.25;22.15;;;;;;;2.63;60.23;98229.02;249867;1155;115777;-80
2021/03/13 03:46:58;;;;;;;43.10;19.80;;;;;;;2.63;60.29;98231.65;249333;1148;114860;-79
2021/03/13 03:52:02;;;;;;;41.40;16.80;;;;;;;2.62;60.00;98223.84;250302;1156;115160;-80
2021/03/13 03:57:07;;;;;;;36.33;14.20;;;;;;;2.60;60.17;98222.12;251077;1148;117213;-79
2021/03/13 04:02:10;;;;;;;39.23;18.53;;;;;;;2.59;60.24;98219.57;247153;1155;114872;-80
2021/03/13 04:07:13;;;;;;;35.50;16.50;;;;;;;2.53;60.17;98207.55;247352;1148;114692;-79
2021/03/13 04:12:18;;;;;;;43.60;17.70;;;;;;;2.47;60.51;98196.45;251455;1156;114716;-78
2021/03/13 04:17:21;;;;;;;45.33;21.03;;;;;;;2.47;60.63;98193.83;250425;1150;114949;-79
2021/03/13 04:22:25;;;;;;;39.97;20.10;;;;;;;2.45;60.64;98193.05;248771;1148;115373;-78
2021/03/13 04:27:27;;;;;;;40.20;20.90;;;;;;;2.38;60.58;98187.22;249381;1151;115148;-79
2021/03/13 04:32:30;;;;;;;45.75;20.30;;;;;;;2.34;60.71;98189.12;246815;1149;114667;-76
2021/03/13 04:37:34;;;;;;;32.53;15.80;;;;;;;2.38;60.78;98192.47;251117;1148;114623;-77
2021/03/13 04:42:39;;;;;;;40.20;17.25;;;;;;;2.40;60.80;98193.23;249197;1155;114714;-76
2021/03/13 04:47:44;;;;;;;32.75;16.15;;;;;;;2.37;60.71;98188.11;249487;1156;115288;-78
2021/03/13 04:52:47;;;;;;;31.50;14.50;;;;;;;2.39;60.83;98174.94;251474;1155;114989;-77
2021/03/13 04:57:50;;;;;;;35.83;14.43;;;;;;;2.39;61.01;98167.05;251410;1149;114841;-77
2021/03/13 05:02:52;;;;;;;26.70;12.50;;;;;;;2.42;60.95;98157.27;249157;1148;114747;-76
2021/03/13 05:07:54;;;;;;;25.05;13.30;;;;;;;2.42;60.89;98165.15;246899;1149;114967;-77
2021/03/13 05:12:57;;;;;;;25.60;11.75;;;;;;;2.45;60.93;98165.02;249148;1156;114532;-77
2021/03/13 05:17:59;;;;;;;23.00;10.90;;;;;;;2.44;61.01;98152.79;251165;1148;115531;-77
2021/03/13 05:23:02;;;;;;;20.15;9.25;;;;;;;2.47;61.30;98149.19;251462;1149;115445;-77
2021/03/13 05:28:04;;;;;;;25.87;10.43;;;;;;;2.51;61.04;98141.09;251370;1148;114674;-77
2021/03/13 05:33:07;;;;;;;25.45;10.65;;;;;;;2.54;60.98;98137.48;250501;1148;115117;-77
2021/03/13 05:38:09;;;;;;;21.35;9.55;;;;;;;2.60;61.04;98137.22;250938;1149;115112;-77
2021/03/13 05:43:12;;;;;;;19.40;9.90;;;;;;;2.64;61.19;98135.31;248900;1148;114659;-77
2021/03/13 05:48:15;;;;;;;23.43;11.13;;;;;;;2.71;61.29;98140.22;249168;1149;115104;-76
2021/03/13 05:53:18;;;;;;;28.47;10.17;;;;;;;2.79;61.49;98121.50;250325;1155;115052;-78
2021/03/13 05:58:22;;;;;;;16.18;6.53;;;;;;;3.01;61.72;98127.46;249831;1149;115055;-77
2021/03/13 06:03:24;;;;;;;12.05;5.15;;;;;;;3.40;61.90;98123.05;250752;1156;114589;-76
2021/03/13 06:08:29;;;;;;;11.48;4.48;;;;;;;3.73;61.60;98137.18;250801;1149;114398;-77
2021/03/13 06:13:33;;;;;;;8.05;3.60;;;;;;;4.07;61.28;98138.14;249291;1157;114480;-77
2021/03/13 06:18:47;;;;;;;13.30;4.60;;;;;;;4.37;61.01;98143.64;251017;1148;114434;-81
2021/03/13 06:23:59;;;;;;;5.60;2.65;;;;;;;4.68;60.66;98142.89;247554;1155;114543;-76
2021/03/13 06:29:14;;;;;;;8.23;2.43;;;;;;;4.98;59.97;98142.20;251493;1148;114409;-77
2021/03/13 06:34:25;;;;;;;7.05;2.70;;;;;;;5.28;60.06;98147.59;251416;1147;115557;-77
2021/03/13 06:39:39;;;;;;;9.25;2.90;;;;;;;5.58;59.44;98154.76;250718;1148;115259;-78
2021/03/13 06:44:53;;;;;;;8.30;1.95;;;;;;;5.89;59.14;98167.91;251531;1149;114477;-78
2021/03/13 06:50:15;;;;;;;4.93;2.30;;;;;;;6.22;59.31;98161.67;251053;1148;114177;-78
2021/03/13 06:55:25;;;;;;;11.70;2.20;;;;;;;6.53;59.07;98163.34;251500;1148;114238;-79
2021/03/13 07:00:30;;;;;;;5.95;2.45;;;;;;;6.79;57.82;98171.48;251481;1149;114754;-78
2021/03/13 07:05:33;;;;;;;6.75;2.55;;;;;;;6.99;57.37;98178.20;250504;1155;114552;-78
2021/03/13 07:10:35;;;;;;;9.00;3.27;;;;;;;7.16;57.08;98180.66;250037;1148;114737;-78
2021/03/13 07:15:38;;;;;;;10.75;3.00;;;;;;;7.31;57.52;98176.23;246509;1149;114509;-76
2021/03/13 07:20:40;;;;;;;6.65;2.70;;;;;;;7.43;57.15;98180.73;251479;1149;114646;-76
2021/03/13 07:25:42;;;;;;;7.35;2.85;;;;;;;7.55;56.32;98195.86;250593;1148;114443;-76
2021/03/13 07:30:45;;;;;;;6.50;2.70;;;;;;;7.72;55.85;98197.43;251364;1148;114877;-76
2021/03/13 07:35:50;;;;;;;5.50;2.43;;;;;;;7.87;55.92;98194.73;248627;1147;114425;-76
2021/03/13 07:40:54;;;;;;;6.85;2.15;;;;;;;8.03;55.62;98183.05;250948;1148;114540;-77
2021/03/13 07:45:58;;;;;;;8.08;2.20;;;;;;;8.22;55.48;98197.73;247733;1148;114561;-76
2021/03/13 07:51:01;;;;;;;8.45;2.00;;;;;;;8.37;55.28;98188.77;248984;1148;114449;-79
2021/03/13 07:56:07;;;;;;;5.40;1.80;;;;;;;8.48;54.92;98183.63;250233;1148;115381;-76
2021/03/13 08:01:12;;;;;;;4.75;2.05;;;;;;;8.57;54.65;98190.13;248677;1155;114461;-74
2021/03/13 08:06:17;;;;;;;6.70;1.90;;;;;;;8.63;54.68;98189.72;251490;1149;114529;-75
2021/03/13 08:11:20;;;;;;;4.70;1.70;;;;;;;8.71;54.74;98200.64;250399;1149;114483;-76
2021/03/13 08:16:35;;;;;;;3.73;1.50;;;;;;;8.75;54.38;98198.63;250190;1148;114474;-77
2021/03/13 08:21:41;;;;;;;7.65;1.85;;;;;;;8.78;54.07;98194.92;251439;1149;114397;-74
2021/03/13 08:26:58;;;;;;;5.53;1.97;;;;;;;8.82;54.20;98191.95;249257;1148;114342;-75
2021/03/13 08:32:00;;;;;;;5.57;2.00;;;;;;;8.90;53.99;98183.45;249128;1148;114132;-78
2021/03/13 08:37:24;;;;;;;9.00;2.40;;;;;;;8.97;53.79;98185.59;248702;1149;115788;-79
2021/03/13 08:42:31;;;;;;;6.50;2.37;;;;;;;9.15;53.99;98188.77;250771;1149;114214;-77
2021/03/13 08:47:53;;;;;;;7.95;2.30;;;;;;;9.29;53.75;98200.23;251197;1150;115071;-77
2021/03/13 08:52:56;;;;;;;7.03;2.10;;;;;;;9.44;53.23;98215.94;249214;1148;114594;-78
2021/03/13 08:57:59;;;;;;;7.70;2.10;;;;;;;9.41;52.77;98216.16;251109;1148;115308;-76
2021/03/13 09:03:02;;;;;;;4.65;1.60;;;;;;;9.36;52.77;98193.53;247723;1148;114278;-76
2021/03/13 09:08:05;;;;;;;6.45;1.90;;;;;;;9.33;52.22;98202.55;249529;1148;114269;-75
2021/03/13 09:13:19;;;;;;;6.15;2.10;;;;;;;9.35;52.82;98205.11;248445;1148;114537;-79
2021/03/13 09:18:21;;;;;;;10.10;2.10;;;;;;;9.39;52.81;98180.88;249824;1148;115132;-78
2021/03/13 09:23:24;;;;;;;4.53;1.97;;;;;;;9.46;52.29;98192.77;248792;1149;114477;-78
2021/03/13 09:28:26;;;;;;;8.17;2.40;;;;;;;9.50;52.28;98198.70;250064;1156;115803;-78
2021/03/13 09:33:28;;;;;;;6.75;2.50;;;;;;;9.51;51.97;98245.57;248546;1155;114699;-76
2021/03/13 09:38:31;;;;;;;4.80;2.10;;;;;;;9.50;51.70;98190.73;248857;1151;114741;-82
2021/03/13 09:43:39;;;;;;;4.35;2.05;;;;;;;9.49;52.01;98191.70;249395;1150;115267;-78
2021/03/13 09:48:42;;;;;;;7.27;2.60;;;;;;;9.57;51.77;98186.68;247470;1150;114925;-81
2021/03/13 09:53:44;;;;;;;7.60;2.90;;;;;;;9.67;52.00;98168.27;249782;1149;114419;-79
2021/03/13 09:58:56;;;;;;;4.95;2.50;;;;;;;9.81;51.58;98167.27;248691;1156;114568;-79
2021/03/13 10:03:58;;;;;;;6.10;2.40;;;;;;;9.92;51.74;98178.83;250807;1149;114270;-82
2021/03/13 10:09:00;;;;;;;5.45;2.55;;;;;;;10.05;51.39;98164.62;248841;1148;114786;-81
2021/03/13 10:14:04;;;;;;;7.17;2.70;;;;;;;10.19;51.01;98172.45;250120;1148;115332;-82
2021/03/13 10:19:06;;;;;;;5.00;2.40;;;;;;;10.39;51.15;98155.00;249727;1148;114592;-78
2021/03/13 10:24:09;;;;;;;5.87;2.40;;;;;;;10.55;51.19;98158.20;250080;1148;114981;-78
2021/03/13 10:29:11;;;;;;;4.65;2.10;;;;;;;10.60;51.09;98144.56;250715;1148;114671;-77
2021/03/13 10:34:14;;;;;;;4.77;2.07;;;;;;;10.73;50.57;98155.94;250353;1148;114905;-78
2021/03/13 10:39:18;;;;;;;6.23;2.00;;;;;;;10.72;50.38;98127.64;249232;1149;115427;-77
2021/03/13 10:44:21;;;;;;;6.50;2.00;;;;;;;10.69;50.32;98140.34;250204;1147;114838;-80
2021/03/13 10:49:28;;;;;;;5.23;2.23;;;;;;;10.72;50.54;98138.28;249624;1148;114903;-77
2021/03/13 10:54:31;;;;;;;3.40;1.95;;;;;;;10.86;50.59;98116.77;251569;1149;115103;-77
2021/03/13 10:59:34;;;;;;;3.55;1.80;;;;;;;11.02;50.26;98097.78;251576;1155;114563;-77
2021/03/13 11:04:37;;;;;;;3.70;1.70;;;;;;;11.41;50.74;98097.38;249343;1149;114721;-78
2021/03/13 11:09:39;;;;;;;3.47;1.93;;;;;;;11.67;49.57;98087.28;248542;1148;114970;-80
2021/03/13 11:14:42;;;;;;;6.00;2.20;;;;;;;11.81;49.26;98089.66;251000;1149;114910;-76
2021/03/13 11:19:44;;;;;;;7.07;1.53;;;;;;;11.89;48.69;98108.59;251440;1148;116578;-77
2021/03/13 11:24:46;;;;;;;5.83;1.73;;;;;;;11.86;48.35;98095.50;251525;1148;114980;-77
2021/03/13 11:29:48;;;;;;;4.60;2.50;;;;;;;11.94;47.87;98077.04;251470;1155;114849;-77
2021/03/13 11:34:52;;;;;;;8.15;2.10;;;;;;;12.02;47.86;98069.27;250812;1148;115194;-78
2021/03/13 11:39:55;;;;;;;5.00;1.80;;;;;;;12.20;48.22;98066.03;251405;1156;115490;-78
2021/03/13 11:44:59;;;;;;;4.80;1.50;;;;;;;12.32;48.12;98043.63;251328;1149;115014;-78
2021/03/13 11:50:05;;;;;;;3.40;1.80;;;;;;;12.41;47.45;98042.02;250972;1155;115688;-77
2021/03/13 11:55:09;;;;;;;6.00;1.80;;;;;;;12.67;47.25;98035.28;251324;1148;114826;-78
2021/03/13 12:00:12;;;;;;;6.65;2.00;;;;;;;12.96;46.99;98021.19;251709;1155;115083;-78
2021/03/13 12:05:15;;;;;;;6.60;2.40;;;;;;;13.23;47.19;97999.20;251694;1148;114836;-77
2021/03/13 12:10:19;;;;;;;4.50;2.10;;;;;;;13.55;46.58;97996.31;251780;1155;115245;-77
2021/03/13 12:15:22;;;;;;;4.40;1.80;;;;;;;13.81;46.23;97991.26;251739;1149;114410;-77
2021/03/13 12:20:25;;;;;;;5.10;2.30;;;;;;;13.88;45.04;97976.33;250959;1155;114618;-77
2021/03/13 12:25:27;;;;;;;5.10;2.00;;;;;;;13.91;45.08;97977.89;250270;1148;114911;-77
2021/03/13 12:30:30;;;;;;;6.57;2.20;;;;;;;13.95;45.13;97966.75;249554;1148;114750;-79
2021/03/13 12:35:51;;;;;;;4.30;2.20;;;;;;;13.99;44.93;97963.79;248855;1149;114884;-76
2021/03/13 12:42:02;;;;;;;4.43;1.90;;;;;;;14.07;44.29;97982.66;249477;1155;114977;-78
2021/03/13 12:47:04;;;;;;;4.80;2.10;;;;;;;14.09;43.90;97949.41;247250;1155;114760;-78
2021/03/13 12:53:28;;;;;;;6.75;2.28;;;;;;;14.24;44.25;97922.21;251888;1144;103164;-78
2021/03/13 12:58:31;;;;;;;5.23;1.63;;;;;;;14.40;43.95;97938.47;248286;1153;114618;-77
2021/03/13 13:03:33;;;;;;;2.58;1.60;;;;;;;14.35;43.10;97940.76;251626;1146;114434;-77
2021/03/13 13:08:36;;;;;;;4.50;1.80;;;;;;;14.32;43.10;97927.66;249409;1152;115035;-77
2021/03/13 13:13:38;;;;;;;4.85;1.78;;;;;;;14.30;42.66;97929.63;249071;1147;114618;-77
2021/03/13 13:18:41;;;;;;;5.88;1.80;;;;;;;14.13;42.56;97937.45;247366;1152;114992;-77
2021/03/13 13:23:43;;;;;;;3.20;1.70;;;;;;;13.68;41.65;97908.65;247172;1144;114194;-77
2021/03/13 13:28:46;;;;;;;4.18;1.95;;;;;;;13.29;42.23;97910.51;247944;1144;114009;-77
2021/03/13 13:33:48;;;;;;;3.27;1.73;;;;;;;12.97;42.53;97908.88;246552;1152;114237;-76
2021/03/13 13:38:52;;;;;;;7.10;2.17;;;;;;;12.69;42.58;97907.00;248731;1153;114237;-76
2021/03/13 13:43:54;;;;;;;4.00;2.17;;;;;;;12.51;42.96;97899.64;249646;1144;115465;-76
2021/03/13 13:48:57;;;;;;;6.33;2.05;;;;;;;12.40;42.60;97891.75;250130;1152;114593;-78
2021/03/13 13:53:59;;;;;;;3.95;2.05;;;;;;;12.37;42.70;97892.02;247482;1152;114436;-77
2021/03/13 13:59:04;;;;;;;5.13;2.43;;;;;;;12.31;43.04;97877.38;249142;1152;115166;-77
2021/03/13 14:04:07;;;;;;;4.20;2.05;;;;;;;12.26;42.71;97884.09;251560;1147;114483;-77
2021/03/13 14:09:12;;;;;;;2.77;1.77;;;;;;;12.22;42.73;97896.02;250349;1152;115087;-77
2021/03/13 14:14:15;;;;;;;2.83;1.33;;;;;;;12.19;42.76;97875.78;250444;1147;114313;-76
2021/03/13 14:19:18;;;;;;;4.83;1.70;;;;;;;12.13;42.87;97895.00;248070;1148;114773;-77
2021/03/13 14:24:20;;;;;;;5.40;1.90;;;;;;;12.07;43.38;97890.20;247057;1153;114676;-76
2021/03/13 14:29:23;;;;;;;3.63;1.30;;;;;;;12.03;42.67;97894.11;247933;1152;114235;-76
2021/03/13 14:34:26;;;;;;;4.78;1.58;;;;;;;11.98;43.43;97886.48;248549;1144;114408;-77
2021/03/13 14:39:29;;;;;;;4.10;1.60;;;;;;;11.94;43.14;97877.07;247948;1144;114699;-79
2021/03/13 14:44:31;;;;;;;2.37;1.73;;;;;;;11.90;43.41;97894.31;250765;1146;114765;-79
2021/03/13 14:49:33;;;;;;;2.53;1.78;;;;;;;11.83;42.91;97883.30;250323;1152;114690;-76
2021/03/13 14:54:36;;;;;;;3.03;1.57;;;;;;;11.81;43.71;97868.41;250889;1146;114454;-75
2021/03/13 14:59:39;;;;;;;4.60;1.68;;;;;;;11.76;43.18;97871.48;249112;1144;114454;-76
2021/03/13 15:04:42;;;;;;;2.50;1.53;;;;;;;11.73;44.13;97865.56;250018;1145;114508;-77
2021/03/13 15:09:44;;;;;;;3.73;1.77;;;;;;;11.71;43.84;97851.52;251348;1144;114536;-79
2021/03/13 15:14:46;;;;;;;3.33;1.70;;;;;;;11.74;43.57;97846.77;248937;1152;114538;-75
2021/03/13 15:19:49;;;;;;;4.45;1.50;;;;;;;11.78;44.08;97837.52;250450;1153;114991;-76
2021/03/13 15:24:51;;;;;;;3.48;1.85;;;;;;;11.82;44.18;97841.64;251163;1144;114177;-76
2021/03/13 15:29:54;;;;;;;5.58;1.70;;;;;;;11.83;44.25;97826.48;252257;1153;114612;-77
2021/03/13 15:34:56;;;;;;;3.13;1.85;;;;;;;11.86;44.01;97822.75;251680;1146;114193;-78
2021/03/13 15:39:59;;;;;;;2.63;1.50;;;;;;;11.84;44.09;97798.87;250937;1153;114474;-77
2021/03/13 15:45:05;;;;;;;3.03;1.63;;;;;;;11.83;44.20;97795.33;251751;1146;114708;-75
2021/03/13 15:50:12;;;;;;;2.83;1.90;;;;;;;11.78;43.97;97784.21;251931;1152;114775;-75
2021/03/13 15:55:17;;;;;;;4.85;1.80;;;;;;;11.74;44.13;97768.63;246935;1152;115093;-72
2021/03/13 16:00:21;;;;;;;4.60;1.83;;;;;;;11.71;44.00;97767.06;250568;1153;114433;-73
2021/03/13 16:05:57;;;;;;;2.60;1.50;;;;;;;11.66;44.34;97755.14;249026;1144;114403;-75
2021/03/13 16:11:01;;;;;;;4.77;2.20;;;;;;;11.63;44.39;97736.75;251651;1152;114204;-74
2021/03/13 16:16:07;;;;;;;5.78;2.53;;;;;;;11.55;44.22;97732.94;252169;1146;114557;-75
2021/03/13 16:21:20;;;;;;;8.57;3.13;;;;;;;11.51;44.44;97727.98;248035;1144;114328;-76
2021/03/13 16:26:25;;;;;;;6.80;3.80;;;;;;;11.46;44.49;97728.40;249388;1146;115876;-77
2021/03/13 16:31:42;;;;;;;6.70;3.45;;;;;;;11.40;44.83;97715.61;251725;1146;114545;-77
2021/03/13 16:36:47;;;;;;;7.87;3.80;;;;;;;11.34;45.41;97706.34;247635;1146;114465;-79
2021/03/13 16:41:49;;;;;;;5.77;3.57;;;;;;;11.29;45.38;97707.71;251567;1153;114500;-77
2021/03/13 16:46:58;;;;;;;8.70;3.90;;;;;;;11.23;45.92;97701.08;250492;1146;115030;-77
2021/03/13 16:52:01;;;;;;;9.20;3.60;;;;;;;11.17;45.67;97690.95;249019;1146;114617;-77
2021/03/13 16:57:04;;;;;;;8.55;3.70;;;;;;;11.11;45.71;97688.84;250175;1146;114612;-78
2021/03/13 17:02:09;;;;;;;9.23;3.80;;;;;;;11.06;45.62;97670.58;249962;1146;114747;-79
2021/03/13 17:07:12;;;;;;;9.03;4.33;;;;;;;11.04;45.63;97685.86;249452;1146;114674;-77
2021/03/13 17:12:15;;;;;;;11.05;4.35;;;;;;;11.00;46.10;97675.59;250706;1145;114518;-79
2021/03/13 17:17:20;;;;;;;7.35;3.75;;;;;;;11.00;45.89;97676.42;248530;1153;114981;-79
2021/03/13 17:22:30;;;;;;;7.53;3.67;;;;;;;11.01;45.81;97683.46;250422;1153;115426;-78
2021/03/13 17:27:34;;;;;;;8.15;3.70;;;;;;;11.01;46.16;97680.80;248285;1153;114875;-78
2021/03/13 17:32:39;;;;;;;7.00;3.80;;;;;;;10.99;45.75;97677.41;252019;1153;115757;-80
2021/03/13 17:37:42;;;;;;;10.00;4.00;;;;;;;11.01;45.68;97671.97;250037;1148;115160;-79
2021/03/13 17:42:52;;;;;;;9.28;4.20;;;;;;;11.01;45.60;97659.50;250679;1147;114999;-79
2021/03/13 17:47:55;;;;;;;8.40;4.23;;;;;;;11.05;46.07;97668.91;251360;1145;114618;-77
2021/03/13 17:52:58;;;;;;;8.13;4.27;;;;;;;11.06;45.58;97659.94;247313;1153;114550;-87
2021/03/13 17:58:03;;;;;;;9.77;4.40;;;;;;;11.09;45.43;97654.34;248694;1146;114861;-85
2021/03/13 18:03:06;;;;;;;8.55;4.40;;;;;;;11.10;45.05;97653.36;251027;1153;115198;-69
2021/03/13 18:08:13;;;;;;;8.10;4.30;;;;;;;11.09;44.60;97654.34;251605;1146;115221;-73
2021/03/13 18:13:16;;;;;;;7.33;4.08;;;;;;;11.11;44.79;97649.75;251822;1146;114941;-79
2021/03/13 18:18:18;;;;;;;8.10;4.10;;;;;;;11.15;44.57;97650.33;251402;1146;114817;-77
2021/03/13 18:23:21;;;;;;;9.23;4.13;;;;;;;11.21;44.03;97643.59;251802;1146;115048;-78
2021/03/13 18:28:25;;;;;;;7.20;3.70;;;;;;;11.26;43.99;97644.90;251924;1146;114651;-77
2021/03/13 18:33:27;;;;;;;8.00;3.63;;;;;;;11.33;43.91;97634.55;249737;1153;114966;-75
2021/03/13 18:38:38;;;;;;;6.90;3.10;;;;;;;11.35;44.00;97632.61;251774;1146;114717;-75
2021/03/13 18:43:41;;;;;;;6.80;3.00;;;;;;;11.38;43.91;97632.34;251807;1152;114492;-76
2021/03/13 18:48:44;;;;;;;5.57;2.60;;;;;;;11.40;43.65;97629.53;251062;1144;115070;-77
2021/03/13 18:53:47;;;;;;;4.60;2.38;;;;;;;11.40;43.70;97625.05;251936;1153;114753;-78
2021/03/13 18:58:53;;;;;;;5.80;2.60;;;;;;;11.45;43.86;97629.98;250993;1145;114955;-86
2021/03/13 19:03:56;;;;;;;4.97;2.30;;;;;;;11.48;43.65;97643.00;250158;1147;114804;-78
2021/03/13 19:08:59;;;;;;;4.88;2.23;;;;;;;11.51;43.61;97643.58;251881;1146;114570;-76
2021/03/13 19:14:02;;;;;;;5.03;2.25;;;;;;;11.57;43.37;97637.70;251937;1153;114592;-74
2021/03/13 19:19:04;;;;;;;5.67;2.20;;;;;;;11.58;43.54;97631.42;251947;1146;114749;-75
2021/03/13 19:24:07;;;;;;;4.13;2.40;;;;;;;11.58;43.74;97633.22;251997;1145;114694;-74
2021/03/13 19:29:28;;;;;;;6.30;2.40;;;;;;;11.55;42.95;97639.69;251875;1146;114435;-74
2021/03/13 19:34:30;;;;;;;6.20;2.80;;;;;;;11.55;42.69;97644.17;251955;1152;115027;-74
2021/03/13 19:39:33;;;;;;;4.80;2.53;;;;;;;11.53;43.06;97641.63;251907;1146;114778;-73
2021/03/13 19:44:36;;;;;;;11.00;2.90;;;;;;;11.53;43.29;97652.28;251954;1146;114628;-75
2021/03/13 19:49:39;;;;;;;6.63;3.10;;;;;;;11.51;42.51;97659.56;252085;1146;114628;-78
2021/03/13 19:54:41;;;;;;;8.77;3.43;;;;;;;11.50;43.20;97668.54;252052;1146;114598;-78
2021/03/13 19:59:45;;;;;;;4.17;2.63;;;;;;;11.48;43.30;97675.84;250776;1146;114582;-76
2021/03/13 20:04:47;;;;;;;7.03;2.90;;;;;;;11.47;42.96;97657.31;251994;1145;116057;-74
2021/03/13 20:09:50;;;;;;;8.23;3.33;;;;;;;11.44;42.84;97661.08;251838;1146;114782;-72
2021/03/13 20:14:53;;;;;;;7.05;3.30;;;;;;;11.45;43.65;97665.45;251800;1153;114861;-72
2021/03/13 20:19:55;;;;;;;8.37;2.97;;;;;;;11.45;43.57;97660.13;251948;1146;114819;-72
2021/03/13 20:24:59;;;;;;;6.48;3.08;;;;;;;11.41;42.97;97669.34;251926;1153;114794;-72
2021/03/13 20:30:12;;;;;;;7.88;3.40;;;;;;;11.41;43.41;97657.84;251877;1146;114954;-73
2021/03/13 20:35:17;;;;;;;5.98;3.30;;;;;;;11.36;43.39;97643.11;250814;1153;115438;-75
2021/03/13 20:40:21;;;;;;;7.50;3.30;;;;;;;11.34;43.73;97649.55;251853;1147;115156;-73
2021/03/13 20:45:26;;;;;;;6.18;3.43;;;;;;;11.27;43.19;97643.07;251884;1146;114579;-72
2021/03/13 20:50:28;;;;;;;7.48;3.50;;;;;;;11.26;43.94;97644.90;251813;1146;114566;-82
2021/03/13 20:55:31;;;;;;;6.00;3.75;;;;;;;11.24;43.90;97646.87;251983;1146;115363;-78
2021/03/13 21:00:33;;;;;;;6.83;3.50;;;;;;;11.23;43.85;97652.31;251332;1145;115109;-78
2021/03/13 21:05:36;;;;;;;8.00;3.63;;;;;;;11.20;43.84;97649.91;251650;1146;114505;-78
2021/03/13 21:10:39;;;;;;;7.55;2.90;;;;;;;11.15;43.79;97655.64;250462;1145;114778;-77
2021/03/13 21:15:42;;;;;;;7.63;3.80;;;;;;;11.10;44.14;97660.52;250120;1153;114730;-78
2021/03/13 21:20:44;;;;;;;10.65;3.98;;;;;;;11.07;44.25;97648.33;251908;1146;114819;-79
2021/03/13 21:25:47;;;;;;;9.33;3.70;;;;;;;11.05;44.13;97646.77;251939;1153;114813;-78
2021/03/13 21:30:49;;;;;;;6.05;3.28;;;;;;;11.05;44.22;97647.61;251967;1146;115438;-78
2021/03/13 21:35:52;;;;;;;8.75;3.38;;;;;;;11.04;44.28;97651.25;251735;1153;114987;-77
2021/03/13 21:40:54;;;;;;;6.48;3.30;;;;;;;11.05;44.47;97657.42;249693;1146;114885;-79
2021/03/13 21:45:57;;;;;;;8.00;3.57;;;;;;;11.04;44.83;97645.06;251983;1153;114963;-79
2021/03/13 21:51:01;;;;;;;7.85;3.40;;;;;;;11.01;44.93;97637.37;251875;1146;114884;-78
2021/03/13 21:56:03;;;;;;;7.75;3.05;;;;;;;11.02;45.43;97621.25;250847;1146;114927;-78
2021/03/13 22:01:06;;;;;;;5.00;2.83;;;;;;;10.98;45.25;97614.52;251917;1146;115107;-76
2021/03/13 22:06:08;;;;;;;6.63;3.23;;;;;;;10.96;45.42;97603.14;251887;1146;114867;-81
2021/03/13 22:11:11;;;;;;;6.50;3.13;;;;;;;10.94;45.19;97602.45;251990;1146;114951;-79
2021/03/13 22:16:13;;;;;;;7.43;3.00;;;;;;;10.92;45.22;97591.08;249437;1146;115589;-81
2021/03/13 22:21:16;;;;;;;5.57;2.77;;;;;;;10.88;45.68;97585.18;249133;1153;114775;-88
2021/03/13 22:26:18;;;;;;;5.47;2.60;;;;;;;10.90;45.70;97601.00;247916;1153;115086;-87
2021/03/13 22:31:20;;;;;;;4.87;2.30;;;;;;;10.94;46.09;97599.79;249401;1153;114918;-88
2021/03/13 22:36:23;;;;;;;4.73;2.53;;;;;;;10.99;45.93;97594.05;249127;1146;114980;-89
2021/03/13 22:41:25;;;;;;;4.23;2.47;;;;;;;11.03;45.86;97595.47;251091;1146;115362;-87
2021/03/13 22:46:28;;;;;;;5.07;2.40;;;;;;;11.04;46.40;97598.02;251534;1153;114651;-90
2021/03/13 22:51:30;;;;;;;4.57;2.40;;;;;;;11.01;46.02;97586.79;251141;1145;114789;-89
2021/03/13 22:56:33;;;;;;;3.90;2.90;;;;;;;11.02;46.58;97573.33;248347;1146;115223;-88
2021/03/13 23:01:35;;;;;;;8.50;2.80;;;;;;;11.03;46.54;97567.02;251183;1148;115775;-88
2021/03/13 23:06:39;;;;;;;5.13;2.80;;;;;;;11.02;46.74;97554.70;251020;1146;114748;-88
2021/03/13 23:11:41;;;;;;;5.38;2.38;;;;;;;11.03;46.47;97561.70;251376;1146;114961;-88
2021/03/13 23:16:43;;;;;;;4.80;2.58;;;;;;;10.98;46.89;97569.26;251870;1145;114707;-88
2021/03/13 23:21:46;;;;;;;5.63;3.23;;;;;;;10.96;47.01;97567.70;252076;1146;114876;-88